sensor_id;sensor_type;location;lat;lon;timestamp;P1;durP1;ratioP1;P2;durP2;ratioP2
10872;SDS011;34586;53.616;10.032;2023-06-19T00:01:51;4.00;;;3.70;;
10872;SDS011;34586;53.616;10.032;2023-06-19T00:04:16;5.07;;;3.90;;
10872;SDS011;34586;53.616;10.032;2023-06-19T00:06:42;4.00;;;3.70;;
10872;SDS011;34586;53.616;10.032;2023-06-19T00:09:08;4.87;;;3.43;;
10872;SDS011;34586;53.616;10.032;2023-06-19T00:11:34;4.20;;;3.80;;
10872;SDS011;34586;53.616;10.032;2023-06-19T00:13:59;6.57;;;4.03;;
10872;SDS011;34586;53.616;10.032;2023-06-19T00:16:26;4.00;;;3.70;;
10872;SDS011;34586;53.616;10.032;2023-06-19T00:18:51;4.30;;;3.90;;
10872;SDS011;34586;53.616;10.032;2023-06-19T00:21:20;5.30;;;4.00;;
10872;SDS011;34586;53.616;10.032;2023-06-19T00:23:49;4.07;;;3.70;;
10872;SDS011;34586;53.616;10.032;2023-06-19T00:26:15;4.63;;;4.23;;
10872;SDS011;34586;53.616;10.032;2023-06-19T00:28:40;4.73;;;4.23;;
10872;SDS011;34586;53.616;10.032;2023-06-19T00:31:08;3.77;;;3.40;;
10872;SDS011;34586;53.616;10.032;2023-06-19T00:33:34;4.30;;;3.90;;
10872;SDS011;34586;53.616;10.032;2023-06-19T00:35:59;4.57;;;3.80;;
10872;SDS011;34586;53.616;10.032;2023-06-19T00:38:26;4.33;;;3.93;;
10872;SDS011;34586;53.616;10.032;2023-06-19T00:40:51;4.50;;;4.10;;
10872;SDS011;34586;53.616;10.032;2023-06-19T00:43:17;4.03;;;3.73;;
10872;SDS011;34586;53.616;10.032;2023-06-19T00:45:43;4.20;;;3.90;;
10872;SDS011;34586;53.616;10.032;2023-06-19T00:48:09;3.90;;;3.60;;
10872;SDS011;34586;53.616;10.032;2023-06-19T00:50:34;4.67;;;3.87;;
10872;SDS011;34586;53.616;10.032;2023-06-19T00:53:03;4.27;;;3.93;;
10872;SDS011;34586;53.616;10.032;2023-06-19T00:55:29;4.70;;;4.30;;
10872;SDS011;34586;53.616;10.032;2023-06-19T00:57:57;5.37;;;4.20;;
10872;SDS011;34586;53.616;10.032;2023-06-19T01:00:24;4.00;;;3.70;;
10872;SDS011;34586;53.616;10.032;2023-06-19T01:02:49;4.03;;;3.73;;
10872;SDS011;34586;53.616;10.032;2023-06-19T01:05:15;4.10;;;3.80;;
10872;SDS011;34586;53.616;10.032;2023-06-19T01:07:46;4.17;;;3.87;;
10872;SDS011;34586;53.616;10.032;2023-06-19T01:10:17;4.60;;;4.20;;
10872;SDS011;34586;53.616;10.032;2023-06-19T01:12:49;5.33;;;4.17;;
10872;SDS011;34586;53.616;10.032;2023-06-19T01:15:24;4.50;;;4.10;;
10872;SDS011;34586;53.616;10.032;2023-06-19T01:17:51;5.10;;;4.33;;
10872;SDS011;34586;53.616;10.032;2023-06-19T01:20:17;4.57;;;4.13;;
10872;SDS011;34586;53.616;10.032;2023-06-19T01:22:43;4.63;;;4.23;;
10872;SDS011;34586;53.616;10.032;2023-06-19T01:25:09;4.30;;;3.90;;
10872;SDS011;34586;53.616;10.032;2023-06-19T01:27:36;4.73;;;4.43;;
10872;SDS011;34586;53.616;10.032;2023-06-19T01:30:03;3.73;;;3.50;;
10872;SDS011;34586;53.616;10.032;2023-06-19T01:35:13;4.77;;;4.37;;
10872;SDS011;34586;53.616;10.032;2023-06-19T01:37:42;4.57;;;3.83;;
10872;SDS011;34586;53.616;10.032;2023-06-19T01:40:10;5.07;;;4.57;;
10872;SDS011;34586;53.616;10.032;2023-06-19T01:42:37;4.50;;;4.20;;
10872;SDS011;34586;53.616;10.032;2023-06-19T01:45:04;4.13;;;3.83;;
10872;SDS011;34586;53.616;10.032;2023-06-19T01:47:31;4.77;;;4.47;;
10872;SDS011;34586;53.616;10.032;2023-06-19T01:49:57;4.83;;;4.43;;
10872;SDS011;34586;53.616;10.032;2023-06-19T01:52:23;4.67;;;4.37;;
10872;SDS011;34586;53.616;10.032;2023-06-19T01:54:49;6.03;;;4.07;;
10872;SDS011;34586;53.616;10.032;2023-06-19T01:57:15;4.93;;;4.33;;
10872;SDS011;34586;53.616;10.032;2023-06-19T01:59:41;5.00;;;4.50;;
10872;SDS011;34586;53.616;10.032;2023-06-19T02:02:07;5.30;;;4.80;;
10872;SDS011;34586;53.616;10.032;2023-06-19T02:04:32;4.50;;;4.10;;
10872;SDS011;34586;53.616;10.032;2023-06-19T02:06:58;5.07;;;4.57;;
10872;SDS011;34586;53.616;10.032;2023-06-19T02:09:24;5.40;;;4.87;;
10872;SDS011;34586;53.616;10.032;2023-06-19T02:11:50;4.73;;;4.43;;
10872;SDS011;34586;53.616;10.032;2023-06-19T02:14:15;4.70;;;4.30;;
10872;SDS011;34586;53.616;10.032;2023-06-19T02:16:41;5.23;;;4.73;;
10872;SDS011;34586;53.616;10.032;2023-06-19T02:19:09;5.20;;;4.70;;
10872;SDS011;34586;53.616;10.032;2023-06-19T02:21:36;5.33;;;4.83;;
10872;SDS011;34586;53.616;10.032;2023-06-19T02:24:02;5.07;;;4.43;;
10872;SDS011;34586;53.616;10.032;2023-06-19T02:26:27;5.60;;;4.70;;
10872;SDS011;34586;53.616;10.032;2023-06-19T02:28:54;5.10;;;4.70;;
10872;SDS011;34586;53.616;10.032;2023-06-19T02:31:21;5.10;;;4.60;;
10872;SDS011;34586;53.616;10.032;2023-06-19T02:33:47;4.83;;;4.43;;
10872;SDS011;34586;53.616;10.032;2023-06-19T02:36:13;5.10;;;4.60;;
10872;SDS011;34586;53.616;10.032;2023-06-19T02:38:43;5.07;;;4.63;;
10872;SDS011;34586;53.616;10.032;2023-06-19T02:41:09;4.93;;;4.53;;
10872;SDS011;34586;53.616;10.032;2023-06-19T02:43:34;5.70;;;5.03;;
10872;SDS011;34586;53.616;10.032;2023-06-19T02:46:00;5.20;;;4.70;;
10872;SDS011;34586;53.616;10.032;2023-06-19T02:48:25;5.03;;;4.53;;
10872;SDS011;34586;53.616;10.032;2023-06-19T02:50:52;5.10;;;4.70;;
10872;SDS011;34586;53.616;10.032;2023-06-19T02:53:17;5.20;;;4.80;;
10872;SDS011;34586;53.616;10.032;2023-06-19T02:55:43;5.43;;;4.93;;
10872;SDS011;34586;53.616;10.032;2023-06-19T02:58:08;6.23;;;4.60;;
10872;SDS011;34586;53.616;10.032;2023-06-19T03:00:34;5.63;;;4.80;;
10872;SDS011;34586;53.616;10.032;2023-06-19T03:03:00;4.97;;;4.57;;
10872;SDS011;34586;53.616;10.032;2023-06-19T03:05:25;5.90;;;5.43;;
10872;SDS011;34586;53.616;10.032;2023-06-19T03:07:52;5.40;;;4.90;;
10872;SDS011;34586;53.616;10.032;2023-06-19T03:10:17;5.37;;;4.93;;
10872;SDS011;34586;53.616;10.032;2023-06-19T03:12:43;5.50;;;5.00;;
10872;SDS011;34586;53.616;10.032;2023-06-19T03:15:09;5.20;;;4.87;;
10872;SDS011;34586;53.616;10.032;2023-06-19T03:17:34;5.60;;;5.07;;
10872;SDS011;34586;53.616;10.032;2023-06-19T03:20:00;5.50;;;5.10;;
10872;SDS011;34586;53.616;10.032;2023-06-19T03:22:26;4.90;;;4.50;;
10872;SDS011;34586;53.616;10.032;2023-06-19T03:24:51;5.17;;;4.60;;
10872;SDS011;34586;53.616;10.032;2023-06-19T03:27:17;6.33;;;5.07;;
10872;SDS011;34586;53.616;10.032;2023-06-19T03:29:43;5.20;;;4.70;;
10872;SDS011;34586;53.616;10.032;2023-06-19T03:32:08;5.20;;;4.80;;
10872;SDS011;34586;53.616;10.032;2023-06-19T03:34:34;5.30;;;4.90;;
10872;SDS011;34586;53.616;10.032;2023-06-19T03:36:59;5.37;;;4.97;;
10872;SDS011;34586;53.616;10.032;2023-06-19T03:39:25;6.30;;;4.73;;
10872;SDS011;34586;53.616;10.032;2023-06-19T03:41:51;5.43;;;4.93;;
10872;SDS011;34586;53.616;10.032;2023-06-19T03:44:16;6.83;;;5.47;;
10872;SDS011;34586;53.616;10.032;2023-06-19T03:46:42;5.20;;;4.80;;
10872;SDS011;34586;53.616;10.032;2023-06-19T03:49:08;6.30;;;5.70;;
10872;SDS011;34586;53.616;10.032;2023-06-19T03:51:34;5.57;;;4.80;;
10872;SDS011;34586;53.616;10.032;2023-06-19T03:54:00;5.93;;;5.43;;
10872;SDS011;34586;53.616;10.032;2023-06-19T03:56:25;5.30;;;4.90;;
10872;SDS011;34586;53.616;10.032;2023-06-19T03:58:51;5.30;;;4.90;;
10872;SDS011;34586;53.616;10.032;2023-06-19T04:01:16;5.70;;;5.30;;
10872;SDS011;34586;53.616;10.032;2023-06-19T04:03:42;5.60;;;5.10;;
10872;SDS011;34586;53.616;10.032;2023-06-19T04:06:08;5.97;;;5.27;;
10872;SDS011;34586;53.616;10.032;2023-06-19T04:08:33;5.73;;;5.13;;
10872;SDS011;34586;53.616;10.032;2023-06-19T04:10:59;5.73;;;5.23;;
10872;SDS011;34586;53.616;10.032;2023-06-19T04:13:24;5.47;;;5.07;;
10872;SDS011;34586;53.616;10.032;2023-06-19T04:15:51;6.03;;;5.43;;
10872;SDS011;34586;53.616;10.032;2023-06-19T04:18:16;6.13;;;5.53;;
10872;SDS011;34586;53.616;10.032;2023-06-19T04:20:42;6.00;;;5.50;;
10872;SDS011;34586;53.616;10.032;2023-06-19T04:23:08;6.20;;;5.70;;
10872;SDS011;34586;53.616;10.032;2023-06-19T04:25:34;5.77;;;5.27;;
10872;SDS011;34586;53.616;10.032;2023-06-19T04:28:00;5.73;;;5.20;;
10872;SDS011;34586;53.616;10.032;2023-06-19T04:30:28;5.97;;;5.40;;
10872;SDS011;34586;53.616;10.032;2023-06-19T04:32:54;5.90;;;5.40;;
10872;SDS011;34586;53.616;10.032;2023-06-19T04:35:20;5.97;;;5.30;;
10872;SDS011;34586;53.616;10.032;2023-06-19T04:37:45;5.80;;;5.30;;
10872;SDS011;34586;53.616;10.032;2023-06-19T04:40:13;6.23;;;5.60;;
10872;SDS011;34586;53.616;10.032;2023-06-19T04:42:39;6.07;;;5.67;;
10872;SDS011;34586;53.616;10.032;2023-06-19T04:45:05;6.67;;;5.67;;
10872;SDS011;34586;53.616;10.032;2023-06-19T04:47:34;6.00;;;5.50;;
10872;SDS011;34586;53.616;10.032;2023-06-19T04:50:00;5.80;;;5.40;;
10872;SDS011;34586;53.616;10.032;2023-06-19T04:52:26;6.40;;;5.90;;
10872;SDS011;34586;53.616;10.032;2023-06-19T04:54:52;6.07;;;5.67;;
10872;SDS011;34586;53.616;10.032;2023-06-19T04:57:17;5.57;;;5.17;;
10872;SDS011;34586;53.616;10.032;2023-06-19T04:59:43;6.20;;;5.77;;
10872;SDS011;34586;53.616;10.032;2023-06-19T05:02:09;6.10;;;5.50;;
10872;SDS011;34586;53.616;10.032;2023-06-19T05:04:35;5.70;;;5.30;;
10872;SDS011;34586;53.616;10.032;2023-06-19T05:07:01;6.10;;;5.50;;
10872;SDS011;34586;53.616;10.032;2023-06-19T05:09:27;6.07;;;5.57;;
10872;SDS011;34586;53.616;10.032;2023-06-19T05:11:53;5.70;;;5.30;;
10872;SDS011;34586;53.616;10.032;2023-06-19T05:14:19;6.10;;;5.60;;
10872;SDS011;34586;53.616;10.032;2023-06-19T05:16:44;6.50;;;5.90;;
10872;SDS011;34586;53.616;10.032;2023-06-19T05:19:10;6.40;;;5.80;;
10872;SDS011;34586;53.616;10.032;2023-06-19T05:21:36;6.47;;;5.97;;
10872;SDS011;34586;53.616;10.032;2023-06-19T05:24:01;6.57;;;5.60;;
10872;SDS011;34586;53.616;10.032;2023-06-19T05:26:27;6.33;;;5.53;;
10872;SDS011;34586;53.616;10.032;2023-06-19T05:28:52;5.90;;;5.40;;
10872;SDS011;34586;53.616;10.032;2023-06-19T05:31:18;6.20;;;5.70;;
10872;SDS011;34586;53.616;10.032;2023-06-19T05:33:44;6.20;;;5.60;;
10872;SDS011;34586;53.616;10.032;2023-06-19T05:36:10;6.57;;;5.97;;
10872;SDS011;34586;53.616;10.032;2023-06-19T05:38:36;6.80;;;6.10;;
10872;SDS011;34586;53.616;10.032;2023-06-19T05:41:02;6.70;;;6.00;;
10872;SDS011;34586;53.616;10.032;2023-06-19T05:43:28;6.53;;;5.93;;
10872;SDS011;34586;53.616;10.032;2023-06-19T05:45:54;6.60;;;6.00;;
10872;SDS011;34586;53.616;10.032;2023-06-19T05:48:24;6.90;;;6.00;;
10872;SDS011;34586;53.616;10.032;2023-06-19T05:50:50;6.47;;;5.87;;
10872;SDS011;34586;53.616;10.032;2023-06-19T05:53:16;6.50;;;5.90;;
10872;SDS011;34586;53.616;10.032;2023-06-19T05:55:42;6.20;;;5.70;;
10872;SDS011;34586;53.616;10.032;2023-06-19T05:58:08;7.67;;;6.17;;
10872;SDS011;34586;53.616;10.032;2023-06-19T06:00:33;6.83;;;5.90;;
10872;SDS011;34586;53.616;10.032;2023-06-19T06:02:59;6.50;;;6.00;;
10872;SDS011;34586;53.616;10.032;2023-06-19T06:05:28;6.27;;;5.67;;
10872;SDS011;34586;53.616;10.032;2023-06-19T06:07:54;6.13;;;5.73;;
10872;SDS011;34586;53.616;10.032;2023-06-19T06:10:20;6.37;;;5.63;;
10872;SDS011;34586;53.616;10.032;2023-06-19T06:12:47;6.50;;;5.90;;
10872;SDS011;34586;53.616;10.032;2023-06-19T06:15:14;6.13;;;5.63;;
10872;SDS011;34586;53.616;10.032;2023-06-19T06:17:39;7.00;;;6.07;;
10872;SDS011;34586;53.616;10.032;2023-06-19T06:20:05;6.70;;;5.90;;
10872;SDS011;34586;53.616;10.032;2023-06-19T06:22:36;6.80;;;6.20;;
10872;SDS011;34586;53.616;10.032;2023-06-19T06:25:02;7.37;;;5.97;;
10872;SDS011;34586;53.616;10.032;2023-06-19T06:27:28;7.10;;;6.10;;
10872;SDS011;34586;53.616;10.032;2023-06-19T06:29:53;6.97;;;6.27;;
10872;SDS011;34586;53.616;10.032;2023-06-19T06:32:19;6.93;;;6.43;;
10872;SDS011;34586;53.616;10.032;2023-06-19T06:34:44;6.93;;;6.23;;
10872;SDS011;34586;53.616;10.032;2023-06-19T06:37:10;6.97;;;6.33;;
10872;SDS011;34586;53.616;10.032;2023-06-19T06:39:35;6.87;;;6.27;;
10872;SDS011;34586;53.616;10.032;2023-06-19T06:42:01;10.27;;;6.83;;
10872;SDS011;34586;53.616;10.032;2023-06-19T06:44:27;7.60;;;6.90;;
10872;SDS011;34586;53.616;10.032;2023-06-19T06:46:52;8.07;;;6.77;;
10872;SDS011;34586;53.616;10.032;2023-06-19T06:49:18;7.07;;;6.40;;
10872;SDS011;34586;53.616;10.032;2023-06-19T06:51:45;7.87;;;6.90;;
10872;SDS011;34586;53.616;10.032;2023-06-19T06:54:10;7.90;;;6.63;;
10872;SDS011;34586;53.616;10.032;2023-06-19T06:56:36;10.17;;;6.57;;
10872;SDS011;34586;53.616;10.032;2023-06-19T06:59:01;7.30;;;6.60;;
10872;SDS011;34586;53.616;10.032;2023-06-19T07:01:27;8.17;;;6.93;;
10872;SDS011;34586;53.616;10.032;2023-06-19T07:03:53;7.27;;;6.67;;
10872;SDS011;34586;53.616;10.032;2023-06-19T07:06:18;8.73;;;7.67;;
10872;SDS011;34586;53.616;10.032;2023-06-19T07:08:44;7.50;;;6.90;;
10872;SDS011;34586;53.616;10.032;2023-06-19T07:11:12;6.90;;;6.30;;
10872;SDS011;34586;53.616;10.032;2023-06-19T07:13:38;8.03;;;7.27;;
10872;SDS011;34586;53.616;10.032;2023-06-19T07:16:04;7.30;;;6.60;;
10872;SDS011;34586;53.616;10.032;2023-06-19T07:18:31;7.53;;;6.83;;
10872;SDS011;34586;53.616;10.032;2023-06-19T07:20:58;7.07;;;6.57;;
10872;SDS011;34586;53.616;10.032;2023-06-19T07:23:23;7.70;;;6.90;;
10872;SDS011;34586;53.616;10.032;2023-06-19T07:25:49;9.43;;;6.73;;
10872;SDS011;34586;53.616;10.032;2023-06-19T07:28:15;7.40;;;6.80;;
10872;SDS011;34586;53.616;10.032;2023-06-19T07:30:40;8.03;;;6.97;;
10872;SDS011;34586;53.616;10.032;2023-06-19T07:33:06;8.83;;;6.53;;
10872;SDS011;34586;53.616;10.032;2023-06-19T07:35:32;6.50;;;6.00;;
10872;SDS011;34586;53.616;10.032;2023-06-19T07:37:57;7.63;;;6.87;;
10872;SDS011;34586;53.616;10.032;2023-06-19T07:40:23;7.97;;;7.17;;
10872;SDS011;34586;53.616;10.032;2023-06-19T07:42:48;7.57;;;6.90;;
10872;SDS011;34586;53.616;10.032;2023-06-19T07:45:14;7.50;;;6.57;;
10872;SDS011;34586;53.616;10.032;2023-06-19T07:47:40;7.67;;;6.97;;
10872;SDS011;34586;53.616;10.032;2023-06-19T07:50:05;7.47;;;6.87;;
10872;SDS011;34586;53.616;10.032;2023-06-19T07:52:31;8.53;;;7.00;;
10872;SDS011;34586;53.616;10.032;2023-06-19T07:54:57;7.13;;;6.63;;
10872;SDS011;34586;53.616;10.032;2023-06-19T07:57:23;7.30;;;6.70;;
10872;SDS011;34586;53.616;10.032;2023-06-19T07:59:50;7.93;;;7.23;;
10872;SDS011;34586;53.616;10.032;2023-06-19T08:02:17;8.13;;;6.67;;
10872;SDS011;34586;53.616;10.032;2023-06-19T08:04:43;9.07;;;6.97;;
10872;SDS011;34586;53.616;10.032;2023-06-19T08:07:09;7.50;;;6.90;;
10872;SDS011;34586;53.616;10.032;2023-06-19T08:09:35;8.43;;;7.63;;
10872;SDS011;34586;53.616;10.032;2023-06-19T08:12:01;8.13;;;7.33;;
10872;SDS011;34586;53.616;10.032;2023-06-19T08:14:27;7.17;;;6.57;;
10872;SDS011;34586;53.616;10.032;2023-06-19T08:16:54;7.73;;;7.03;;
10872;SDS011;34586;53.616;10.032;2023-06-19T08:19:20;8.37;;;7.40;;
10872;SDS011;34586;53.616;10.032;2023-06-19T08:21:45;7.80;;;7.10;;
10872;SDS011;34586;53.616;10.032;2023-06-19T08:24:11;8.13;;;7.33;;
10872;SDS011;34586;53.616;10.032;2023-06-19T08:26:37;7.57;;;6.87;;
10872;SDS011;34586;53.616;10.032;2023-06-19T08:29:02;7.63;;;6.93;;
10872;SDS011;34586;53.616;10.032;2023-06-19T08:31:28;8.00;;;7.17;;
10872;SDS011;34586;53.616;10.032;2023-06-19T08:33:54;7.30;;;6.60;;
10872;SDS011;34586;53.616;10.032;2023-06-19T08:36:20;7.27;;;6.67;;
10872;SDS011;34586;53.616;10.032;2023-06-19T08:38:46;10.67;;;7.33;;
10872;SDS011;34586;53.616;10.032;2023-06-19T08:41:18;7.73;;;6.93;;
10872;SDS011;34586;53.616;10.032;2023-06-19T08:43:45;9.27;;;7.30;;
10872;SDS011;34586;53.616;10.032;2023-06-19T08:46:17;7.30;;;6.70;;
10872;SDS011;34586;53.616;10.032;2023-06-19T08:48:43;8.27;;;7.40;;
10872;SDS011;34586;53.616;10.032;2023-06-19T08:51:10;7.50;;;6.97;;
10872;SDS011;34586;53.616;10.032;2023-06-19T08:53:45;9.63;;;7.27;;
10872;SDS011;34586;53.616;10.032;2023-06-19T08:56:18;10.20;;;7.17;;
10872;SDS011;34586;53.616;10.032;2023-06-19T08:58:43;8.77;;;7.83;;
10872;SDS011;34586;53.616;10.032;2023-06-19T09:01:09;8.23;;;7.43;;
10872;SDS011;34586;53.616;10.032;2023-06-19T09:03:34;7.83;;;7.03;;
10872;SDS011;34586;53.616;10.032;2023-06-19T09:06:06;7.13;;;6.60;;
10872;SDS011;34586;53.616;10.032;2023-06-19T09:08:32;7.40;;;6.80;;
10872;SDS011;34586;53.616;10.032;2023-06-19T09:10:59;7.80;;;6.87;;
10872;SDS011;34586;53.616;10.032;2023-06-19T09:13:29;6.50;;;5.90;;
10872;SDS011;34586;53.616;10.032;2023-06-19T09:15:59;7.37;;;5.93;;
10872;SDS011;34586;53.616;10.032;2023-06-19T09:21:27;8.03;;;6.43;;
10872;SDS011;34586;53.616;10.032;2023-06-19T09:23:53;7.47;;;6.60;;
10872;SDS011;34586;53.616;10.032;2023-06-19T09:26:19;6.33;;;5.83;;
10872;SDS011;34586;53.616;10.032;2023-06-19T09:28:45;6.43;;;5.93;;
10872;SDS011;34586;53.616;10.032;2023-06-19T09:31:11;6.83;;;6.23;;
10872;SDS011;34586;53.616;10.032;2023-06-19T09:33:38;7.30;;;6.57;;
10872;SDS011;34586;53.616;10.032;2023-06-19T09:36:05;7.10;;;6.50;;
10872;SDS011;34586;53.616;10.032;2023-06-19T09:38:32;6.60;;;5.93;;
10872;SDS011;34586;53.616;10.032;2023-06-19T09:41:00;6.30;;;5.80;;
10872;SDS011;34586;53.616;10.032;2023-06-19T09:43:37;6.83;;;5.90;;
10872;SDS011;34586;53.616;10.032;2023-06-19T09:46:07;6.47;;;5.97;;
10872;SDS011;34586;53.616;10.032;2023-06-19T09:48:35;6.87;;;6.23;;
10872;SDS011;34586;53.616;10.032;2023-06-19T09:53:42;8.10;;;7.30;;
10872;SDS011;34586;53.616;10.032;2023-06-19T09:56:13;6.63;;;6.13;;
10872;SDS011;34586;53.616;10.032;2023-06-19T09:58:39;7.47;;;6.87;;
10872;SDS011;34586;53.616;10.032;2023-06-19T10:01:09;6.57;;;6.07;;
10872;SDS011;34586;53.616;10.032;2023-06-19T10:03:35;6.30;;;5.80;;
10872;SDS011;34586;53.616;10.032;2023-06-19T10:06:02;6.50;;;6.00;;
10872;SDS011;34586;53.616;10.032;2023-06-19T10:08:38;7.90;;;6.70;;
10872;SDS011;34586;53.616;10.032;2023-06-19T10:11:08;8.33;;;6.60;;
10872;SDS011;34586;53.616;10.032;2023-06-19T10:13:35;7.80;;;7.00;;
10872;SDS011;34586;53.616;10.032;2023-06-19T10:16:03;8.40;;;6.43;;
10872;SDS011;34586;53.616;10.032;2023-06-19T10:18:30;7.40;;;6.67;;
10872;SDS011;34586;53.616;10.032;2023-06-19T10:20:57;8.23;;;6.83;;
10872;SDS011;34586;53.616;10.032;2023-06-19T10:23:24;9.10;;;6.50;;
10872;SDS011;34586;53.616;10.032;2023-06-19T10:25:55;7.67;;;6.90;;
10872;SDS011;34586;53.616;10.032;2023-06-19T10:28:23;7.40;;;6.80;;
10872;SDS011;34586;53.616;10.032;2023-06-19T10:30:54;8.57;;;7.33;;
10872;SDS011;34586;53.616;10.032;2023-06-19T10:33:24;7.37;;;6.77;;
10872;SDS011;34586;53.616;10.032;2023-06-19T10:35:53;7.13;;;6.47;;
10872;SDS011;34586;53.616;10.032;2023-06-19T10:38:19;8.13;;;7.13;;
10872;SDS011;34586;53.616;10.032;2023-06-19T10:40:45;7.30;;;6.60;;
10872;SDS011;34586;53.616;10.032;2023-06-19T10:43:11;7.67;;;7.03;;
10872;SDS011;34586;53.616;10.032;2023-06-19T10:45:38;6.90;;;6.20;;
10872;SDS011;34586;53.616;10.032;2023-06-19T10:48:03;11.27;;;7.40;;
10872;SDS011;34586;53.616;10.032;2023-06-19T10:50:30;6.60;;;6.10;;
10872;SDS011;34586;53.616;10.032;2023-06-19T10:53:00;6.97;;;6.37;;
10872;SDS011;34586;53.616;10.032;2023-06-19T10:55:32;7.07;;;6.47;;
10872;SDS011;34586;53.616;10.032;2023-06-19T10:57:58;8.07;;;6.83;;
10872;SDS011;34586;53.616;10.032;2023-06-19T11:00:28;7.93;;;6.47;;
10872;SDS011;34586;53.616;10.032;2023-06-19T11:02:55;9.33;;;6.43;;
10872;SDS011;34586;53.616;10.032;2023-06-19T11:05:22;7.87;;;7.07;;
10872;SDS011;34586;53.616;10.032;2023-06-19T11:07:51;7.40;;;6.70;;
10872;SDS011;34586;53.616;10.032;2023-06-19T11:10:18;6.60;;;6.10;;
10872;SDS011;34586;53.616;10.032;2023-06-19T11:12:45;8.13;;;7.03;;
10872;SDS011;34586;53.616;10.032;2023-06-19T11:15:12;8.30;;;7.50;;
10872;SDS011;34586;53.616;10.032;2023-06-19T11:17:38;7.63;;;6.87;;
10872;SDS011;34586;53.616;10.032;2023-06-19T11:20:03;8.17;;;7.47;;
10872;SDS011;34586;53.616;10.032;2023-06-19T11:22:37;7.27;;;6.57;;
10872;SDS011;34586;53.616;10.032;2023-06-19T11:25:04;7.67;;;6.67;;
10872;SDS011;34586;53.616;10.032;2023-06-19T11:27:30;7.90;;;7.27;;
10872;SDS011;34586;53.616;10.032;2023-06-19T11:29:56;6.50;;;6.00;;
10872;SDS011;34586;53.616;10.032;2023-06-19T11:32:23;7.17;;;6.50;;
10872;SDS011;34586;53.616;10.032;2023-06-19T11:34:56;6.97;;;6.27;;
10872;SDS011;34586;53.616;10.032;2023-06-19T11:37:22;6.17;;;5.67;;
10872;SDS011;34586;53.616;10.032;2023-06-19T11:39:48;7.43;;;6.60;;
10872;SDS011;34586;53.616;10.032;2023-06-19T11:42:15;6.70;;;6.10;;
10872;SDS011;34586;53.616;10.032;2023-06-19T11:47:25;6.43;;;5.77;;
10872;SDS011;34586;53.616;10.032;2023-06-19T11:49:51;6.03;;;5.53;;
10872;SDS011;34586;53.616;10.032;2023-06-19T11:52:17;6.53;;;5.97;;
10872;SDS011;34586;53.616;10.032;2023-06-19T11:54:42;6.40;;;5.90;;
10872;SDS011;34586;53.616;10.032;2023-06-19T11:57:09;5.70;;;5.30;;
10872;SDS011;34586;53.616;10.032;2023-06-19T11:59:38;5.63;;;5.20;;
10872;SDS011;34586;53.616;10.032;2023-06-19T12:02:07;6.17;;;5.63;;
10872;SDS011;34586;53.616;10.032;2023-06-19T12:04:33;5.67;;;5.27;;
10872;SDS011;34586;53.616;10.032;2023-06-19T12:06:59;6.07;;;5.57;;
10872;SDS011;34586;53.616;10.032;2023-06-19T12:09:25;8.37;;;5.30;;
10872;SDS011;34586;53.616;10.032;2023-06-19T12:11:52;6.50;;;4.80;;
10872;SDS011;34586;53.616;10.032;2023-06-19T12:14:18;5.27;;;4.87;;
10872;SDS011;34586;53.616;10.032;2023-06-19T12:16:47;5.40;;;4.87;;
10872;SDS011;34586;53.616;10.032;2023-06-19T12:19:13;5.20;;;4.80;;
10872;SDS011;34586;53.616;10.032;2023-06-19T12:21:38;5.37;;;4.97;;
10872;SDS011;34586;53.616;10.032;2023-06-19T12:24:04;5.17;;;4.53;;
10872;SDS011;34586;53.616;10.032;2023-06-19T12:26:30;5.40;;;5.00;;
10872;SDS011;34586;53.616;10.032;2023-06-19T12:29:02;6.47;;;4.47;;
10872;SDS011;34586;53.616;10.032;2023-06-19T12:31:31;6.60;;;4.87;;
10872;SDS011;34586;53.616;10.032;2023-06-19T12:33:57;4.97;;;4.57;;
10872;SDS011;34586;53.616;10.032;2023-06-19T12:36:23;4.73;;;4.43;;
10872;SDS011;34586;53.616;10.032;2023-06-19T12:38:51;6.60;;;4.70;;
10872;SDS011;34586;53.616;10.032;2023-06-19T12:41:18;6.37;;;4.80;;
10872;SDS011;34586;53.616;10.032;2023-06-19T12:43:47;4.60;;;4.30;;
10872;SDS011;34586;53.616;10.032;2023-06-19T12:46:13;6.80;;;4.87;;
10872;SDS011;34586;53.616;10.032;2023-06-19T12:48:39;5.37;;;4.87;;
10872;SDS011;34586;53.616;10.032;2023-06-19T12:51:05;5.67;;;4.47;;
10872;SDS011;34586;53.616;10.032;2023-06-19T12:53:31;6.80;;;4.90;;
10872;SDS011;34586;53.616;10.032;2023-06-19T12:55:57;5.77;;;4.73;;
10872;SDS011;34586;53.616;10.032;2023-06-19T12:58:23;9.00;;;5.10;;
10872;SDS011;34586;53.616;10.032;2023-06-19T13:00:49;7.27;;;4.33;;
10872;SDS011;34586;53.616;10.032;2023-06-19T13:03:14;5.53;;;4.13;;
10872;SDS011;34586;53.616;10.032;2023-06-19T13:05:40;4.70;;;4.07;;
10872;SDS011;34586;53.616;10.032;2023-06-19T13:08:05;6.27;;;4.50;;
10872;SDS011;34586;53.616;10.032;2023-06-19T13:10:31;4.40;;;4.10;;
10872;SDS011;34586;53.616;10.032;2023-06-19T13:12:56;6.87;;;4.77;;
10872;SDS011;34586;53.616;10.032;2023-06-19T13:15:25;4.57;;;4.27;;
10872;SDS011;34586;53.616;10.032;2023-06-19T13:17:52;6.27;;;5.23;;
10872;SDS011;34586;53.616;10.032;2023-06-19T13:20:18;9.47;;;4.90;;
10872;SDS011;34586;53.616;10.032;2023-06-19T13:22:43;5.47;;;4.63;;
10872;SDS011;34586;53.616;10.032;2023-06-19T13:25:09;6.37;;;4.00;;
10872;SDS011;34586;53.616;10.032;2023-06-19T13:27:35;6.40;;;4.00;;
10872;SDS011;34586;53.616;10.032;2023-06-19T13:30:01;5.60;;;4.10;;
10872;SDS011;34586;53.616;10.032;2023-06-19T13:32:27;3.87;;;3.53;;
10872;SDS011;34586;53.616;10.032;2023-06-19T13:34:53;5.37;;;3.67;;
10872;SDS011;34586;53.616;10.032;2023-06-19T13:37:19;5.73;;;3.40;;
10872;SDS011;34586;53.616;10.032;2023-06-19T13:39:44;3.83;;;3.53;;
10872;SDS011;34586;53.616;10.032;2023-06-19T13:42:10;3.60;;;3.40;;
10872;SDS011;34586;53.616;10.032;2023-06-19T13:44:36;3.50;;;3.20;;
10872;SDS011;34586;53.616;10.032;2023-06-19T13:47:02;3.77;;;3.47;;
10872;SDS011;34586;53.616;10.032;2023-06-19T13:49:28;5.67;;;3.57;;
10872;SDS011;34586;53.616;10.032;2023-06-19T13:51:54;6.23;;;3.50;;
10872;SDS011;34586;53.616;10.032;2023-06-19T13:54:20;7.50;;;3.70;;
10872;SDS011;34586;53.616;10.032;2023-06-19T13:56:46;4.10;;;3.70;;
10872;SDS011;34586;53.616;10.032;2023-06-19T13:59:12;5.60;;;4.00;;
10872;SDS011;34586;53.616;10.032;2023-06-19T14:01:38;6.47;;;3.73;;
10872;SDS011;34586;53.616;10.032;2023-06-19T14:04:05;4.47;;;2.90;;
10872;SDS011;34586;53.616;10.032;2023-06-19T14:06:30;7.33;;;3.47;;
10872;SDS011;34586;53.616;10.032;2023-06-19T14:08:56;3.33;;;3.03;;
10872;SDS011;34586;53.616;10.032;2023-06-19T14:11:21;7.80;;;3.23;;
10872;SDS011;34586;53.616;10.032;2023-06-19T14:13:47;4.33;;;2.83;;
10872;SDS011;34586;53.616;10.032;2023-06-19T14:16:13;5.47;;;3.17;;
10872;SDS011;34586;53.616;10.032;2023-06-19T14:18:38;3.03;;;2.83;;
10872;SDS011;34586;53.616;10.032;2023-06-19T14:21:04;5.93;;;3.27;;
10872;SDS011;34586;53.616;10.032;2023-06-19T14:23:29;4.37;;;3.40;;
10872;SDS011;34586;53.616;10.032;2023-06-19T14:25:56;7.17;;;3.30;;
10872;SDS011;34586;53.616;10.032;2023-06-19T14:28:21;4.30;;;3.10;;
10872;SDS011;34586;53.616;10.032;2023-06-19T14:30:47;6.97;;;3.50;;
10872;SDS011;34586;53.616;10.032;2023-06-19T14:33:12;2.90;;;2.60;;
10872;SDS011;34586;53.616;10.032;2023-06-19T14:35:42;4.30;;;2.87;;
10872;SDS011;34586;53.616;10.032;2023-06-19T14:38:11;3.50;;;3.10;;
10872;SDS011;34586;53.616;10.032;2023-06-19T14:40:38;4.80;;;3.33;;